Time;durP1;ratioP1;P1;durP2;ratioP2;P2;SDS_P1;SDS_P2;PMS_P1;PMS_P2;Temp;Humidity;BMP_temperature;BMP_pressure;BME280_temperature;BME280_humidity;BME280_pressure;Samples;Min_cycle;Max_cycle;Signal;HPM_P1;HPM_P2
2022/10/23 00:02:54;;;;;;;7.65;4.63;;;12.50;89.60;;;;;;9177293;19;20018;-60
2022/10/23 00:05:59;;;;;;;12.20;5.13;;;12.50;89.60;;;;;;9177013;19;20044;-61
2022/10/23 00:09:05;;;;;;;11.15;5.30;;;12.50;89.60;;;;;;9181797;19;20018;-63
2022/10/23 00:12:09;;;;;;;9.60;5.05;;;12.50;89.60;;;;;;9185442;19;20023;-64
2022/10/23 00:15:13;;;;;;;10.70;5.20;;;12.50;89.60;;;;;;9183296;19;20351;-63
2022/10/23 00:18:17;;;;;;;11.30;5.07;;;12.50;89.60;;;;;;9184790;19;20045;-64
2022/10/23 00:21:23;;;;;;;8.35;5.18;;;12.50;89.70;;;;;;9184662;19;20511;-62
2022/10/23 00:24:26;;;;;;;10.93;5.50;;;12.40;89.60;;;;;;9184818;19;20035;-61
2022/10/23 00:27:30;;;;;;;8.55;5.15;;;12.40;89.60;;;;;;9184853;19;20041;-61
2022/10/23 00:30:34;;;;;;;13.73;5.60;;;12.40;89.60;;;;;;9183175;19;20042;-64
2022/10/23 00:33:38;;;;;;;13.95;5.03;;;12.40;89.60;;;;;;9183482;19;20023;-62
2022/10/23 00:36:43;;;;;;;10.15;5.28;;;12.40;89.60;;;;;;9184232;19;20048;-63
2022/10/23 00:39:47;;;;;;;9.00;5.32;;;12.40;89.70;;;;;;9184407;19;20806;-62
2022/10/23 00:42:50;;;;;;;8.77;5.30;;;12.40;89.70;;;;;;9179323;19;20019;-63
2022/10/23 00:45:55;;;;;;;18.58;6.38;;;12.40;89.80;;;;;;9182417;19;20085;-64
2022/10/23 00:48:59;;;;;;;7.10;5.70;;;12.40;89.80;;;;;;9182724;19;20107;-63
2022/10/23 00:52:09;;;;;;;11.23;5.30;;;12.40;89.70;;;;;;9182754;19;20393;-62
2022/10/23 00:55:13;;;;;;;12.75;5.80;;;12.40;89.80;;;;;;9181708;19;20513;-64
2022/10/23 00:58:19;;;;;;;11.50;5.60;;;12.40;89.80;;;;;;9181613;19;20081;-62
2022/10/23 01:01:24;;;;;;;12.45;6.35;;;12.40;89.80;;;;;;9181131;19;20082;-61
2022/10/23 01:04:30;;;;;;;12.05;6.00;;;12.40;89.80;;;;;;9179354;19;20011;-64
2022/10/23 01:07:44;;;;;;;11.10;6.40;;;12.40;89.90;;;;;;9183391;19;20367;-62
2022/10/23 01:10:53;;;;;;;14.80;6.68;;;12.40;89.90;;;;;;9180339;19;20663;-63
2022/10/23 01:14:03;;;;;;;13.18;6.30;;;12.40;89.80;;;;;;9182844;19;20583;-61
2022/10/23 01:17:13;;;;;;;12.75;6.15;;;12.40;89.80;;;;;;9180840;19;20014;-62
2022/10/23 01:20:38;;;;;;;15.70;6.93;;;12.40;89.80;;;;;;9180696;19;20014;-62
2022/10/23 01:24:18;;;;;;;12.43;5.97;;;12.40;89.80;;;;;;9180917;19;20491;-62
2022/10/23 01:27:27;;;;;;;11.93;6.00;;;12.40;89.80;;;;;;9180286;19;20021;-64
2022/10/23 01:30:34;;;;;;;19.20;6.80;;;12.40;89.70;;;;;;9178568;19;20011;-60
2022/10/23 01:33:43;;;;;;;15.20;6.47;;;12.40;89.80;;;;;;9182636;19;20494;-61
2022/10/23 01:36:50;;;;;;;12.93;5.72;;;12.40;89.80;;;;;;9181046;19;20871;-62
2022/10/23 01:39:56;;;;;;;9.90;5.50;;;12.30;89.80;;;;;;9180862;19;20082;-61
2022/10/23 01:43:06;;;;;;;16.30;6.72;;;12.30;89.80;;;;;;9176138;19;20379;-64
2022/10/23 01:46:15;;;;;;;10.63;6.07;;;12.30;89.80;;;;;;9180825;19;20014;-61
2022/10/23 01:49:23;;;;;;;16.65;6.22;;;12.30;89.80;;;;;;9179077;19;20015;-64
2022/10/23 01:52:31;;;;;;;15.82;6.28;;;12.30;89.80;;;;;;9180157;19;20740;-62
2022/10/23 01:55:37;;;;;;;11.80;6.45;;;12.30;89.80;;;;;;9179626;19;20467;-63
2022/10/23 01:58:50;;;;;;;13.02;5.93;;;12.30;89.80;;;;;;9179892;19;20490;-61
2022/10/23 02:01:57;;;;;;;12.35;6.35;;;12.20;89.80;;;;;;9177784;19;20022;-62
2022/10/23 02:05:07;;;;;;;13.82;6.97;;;12.40;89.90;;;;;;9177582;19;20471;-64
2022/10/23 02:08:11;;;;;;;13.68;6.55;;;12.10;89.80;;;;;;9180864;19;20048;-61
2022/10/23 02:11:16;;;;;;;12.40;6.07;;;12.20;89.80;;;;;;9178819;19;20154;-62
2022/10/23 02:14:30;;;;;;;12.57;6.85;;;12.10;89.80;;;;;;9181007;19;20343;-62
2022/10/23 02:17:43;;;;;;;10.52;6.25;;;12.10;89.80;;;;;;9179826;19;20011;-63
2022/10/23 02:20:56;;;;;;;11.25;5.93;;;12.10;89.90;;;;;;9179315;19;20003;-61
2022/10/23 02:24:06;;;;;;;9.38;6.10;;;12.10;89.90;;;;;;9178683;19;20095;-61
2022/10/23 02:27:17;;;;;;;10.40;5.60;;;12.00;89.80;;;;;;9179438;19;20023;-61
2022/10/23 02:30:30;;;;;;;11.50;6.05;;;12.10;89.90;;;;;;9175017;19;20007;-62
2022/10/23 02:33:46;;;;;;;16.70;6.03;;;12.00;89.90;;;;;;9179198;19;20462;-61
2022/10/23 02:36:50;;;;;;;8.10;5.47;;;12.00;89.90;;;;;;9178601;19;20078;-64
2022/10/23 02:39:56;;;;;;;7.95;5.68;;;12.00;89.90;;;;;;9177835;19;20060;-63
2022/10/23 02:43:06;;;;;;;7.45;5.05;;;12.00;89.90;;;;;;9175519;19;20040;-62
2022/10/23 02:46:22;;;;;;;11.77;5.97;;;11.90;89.90;;;;;;9179117;19;20014;-61
2022/10/23 02:49:30;;;;;;;10.30;5.28;;;11.90;89.90;;;;;;9178776;19;20014;-62
2022/10/23 02:52:42;;;;;;;8.90;5.38;;;11.90;89.90;;;;;;9179239;19;20046;-66
2022/10/23 02:55:57;;;;;;;12.48;6.10;;;11.90;89.90;;;;;;9179551;19;20011;-61
2022/10/23 02:59:05;;;;;;;10.18;6.15;;;11.90;90.00;;;;;;9176007;19;20033;-62
2022/10/23 03:02:19;;;;;;;13.80;6.63;;;11.90;90.00;;;;;;9177365;19;20014;-62
2022/10/23 03:05:26;;;;;;;14.38;5.32;;;11.80;90.00;;;;;;9175649;19;20014;-62
2022/10/23 03:08:30;;;;;;;11.52;6.05;;;11.80;90.00;;;;;;9177955;19;20474;-62
2022/10/23 03:11:34;;;;;;;17.05;6.25;;;11.80;90.20;;;;;;9173932;19;20059;-63
2022/10/23 03:14:39;;;;;;;10.43;6.47;;;11.80;90.00;;;;;;9178195;19;20486;-62
2022/10/23 03:17:46;;;;;;;8.85;5.80;;;11.80;90.00;;;;;;9176229;19;20014;-62
2022/10/23 03:20:51;;;;;;;11.18;6.53;;;11.80;90.00;;;;;;9178800;19;20535;-62
2022/10/23 03:23:58;;;;;;;11.43;6.70;;;11.80;90.00;;;;;;9176625;19;20019;-60
2022/10/23 03:27:11;;;;;;;15.85;6.53;;;11.70;90.00;;;;;;9176506;19;20484;-62
2022/10/23 03:30:16;;;;;;;10.82;7.30;;;;;;;;;;9174928;19;20491;-60
2022/10/23 03:33:21;;;;;;;16.48;7.72;;;11.70;89.50;;;;;;9176665;19;20405;-62
2022/10/23 03:36:25;;;;;;;15.95;6.47;;;11.70;90.00;;;;;;9178017;19;20014;-61
2022/10/23 03:39:30;;;;;;;14.35;7.80;;;11.70;90.00;;;;;;9175674;19;20498;-61
2022/10/23 03:42:33;;;;;;;15.85;7.20;;;11.70;90.00;;;;;;9176079;19;20236;-60
2022/10/23 03:45:37;;;;;;;15.32;6.85;;;11.60;90.00;;;;;;9175595;19;20033;-60
2022/10/23 03:48:42;;;;;;;14.98;6.63;;;11.60;90.00;;;;;;9175869;19;20018;-61
2022/10/23 03:51:51;;;;;;;13.23;6.80;;;11.60;90.00;;;;;;9172216;19;20029;-60
2022/10/23 03:54:57;;;;;;;12.75;7.00;;;11.60;90.00;;;;;;9172992;19;20395;-63
2022/10/23 03:58:00;;;;;;;19.55;7.70;;;11.60;90.00;;;;;;9176981;19;20458;-61
2022/10/23 04:01:04;;;;;;;13.32;7.10;;;11.60;90.00;;;;;;9177396;19;20023;-60
2022/10/23 04:04:10;;;;;;;;;;;11.60;90.00;;;;;;9175628;19;20086;-61
2022/10/23 04:07:14;;;;;;;17.02;6.68;;;11.60;90.00;;;;;;9175473;19;20294;-61
2022/10/23 04:10:17;;;;;;;13.55;6.75;;;11.60;90.00;;;;;;9174503;19;20037;-64
2022/10/23 04:13:21;;;;;;;12.57;7.18;;;11.60;90.00;;;;;;9174947;19;20039;-60
2022/10/23 04:16:25;;;;;;;14.50;7.55;;;11.50;90.00;;;;;;9174952;19;20010;-62
2022/10/23 04:19:30;;;;;;;14.88;6.45;;;11.50;90.00;;;;;;9176245;19;20432;-62
2022/10/23 04:22:34;;;;;;;12.35;7.05;;;11.50;90.10;;;;;;9173924;19;20018;-62
2022/10/23 04:25:38;;;;;;;13.23;7.53;;;11.50;90.10;;;;;;9175897;19;20423;-63
2022/10/23 04:28:41;;;;;;;20.60;8.20;;;11.50;90.10;;;;;;9174069;19;20026;-63
2022/10/23 04:31:45;;;;;;;11.98;7.35;;;11.50;90.10;;;;;;9171370;19;20015;-64
2022/10/23 04:34:51;;;;;;;16.92;7.15;;;11.50;90.10;;;;;;9176490;19;20018;-61
2022/10/23 04:37:55;;;;;;;17.02;7.35;;;11.50;90.10;;;;;;9174502;19;20010;-61
2022/10/23 04:40:59;;;;;;;11.68;7.22;;;11.50;90.10;;;;;;9174288;19;20018;-63
2022/10/23 04:44:03;;;;;;;20.73;8.45;;;11.50;90.20;;;;;;9168878;19;20022;-61
2022/10/23 04:47:09;;;;;;;13.35;6.70;;;11.50;90.10;;;;;;9174055;19;20349;-62
2022/10/23 04:50:25;;;;;;;16.37;7.20;;;11.50;90.10;;;;;;9171363;19;20040;-62
2022/10/23 04:53:51;;;;;;;14.25;6.50;;;11.50;90.10;;;;;;9176544;19;20019;-62
2022/10/23 04:57:27;;;;;;;18.48;7.43;;;11.50;90.10;;;;;;9181303;19;20082;-62
2022/10/23 05:00:39;;;;;;;19.83;7.47;;;11.50;90.10;;;;;;9181506;19;20018;-62
2022/10/23 05:03:44;;;;;;;15.48;7.70;;;11.50;90.10;;;;;;9181182;19;20639;-62
2022/10/23 05:06:50;;;;;;;29.20;10.27;;;11.50;90.20;;;;;;9182160;19;20360;-62
2022/10/23 05:10:17;;;;;;;18.13;7.97;;;11.60;90.20;;;;;;9180107;19;20011;-63
2022/10/23 05:13:32;;;;;;;20.70;7.82;;;11.60;90.20;;;;;;9181277;19;20590;-62
2022/10/23 05:16:40;;;;;;;12.90;7.18;;;11.50;90.20;;;;;;9180633;19;20090;-62
2022/10/23 05:19:48;;;;;;;17.92;8.02;;;11.60;90.20;;;;;;9183026;19;20082;-62
2022/10/23 05:22:56;;;;;;;15.52;7.90;;;11.60;90.20;;;;;;9182714;19;20102;-62
2022/10/23 05:26:02;;;;;;;19.23;7.50;;;11.60;90.20;;;;;;9181355;19;20052;-61
2022/10/23 05:29:07;;;;;;;17.02;7.97;;;11.60;90.20;;;;;;9181815;19;20479;-60
2022/10/23 05:32:12;;;;;;;12.68;7.97;;;11.60;90.20;;;;;;9177083;19;20053;-61
2022/10/23 05:35:21;;;;;;;15.40;8.38;;;11.60;90.30;;;;;;9180368;19;20442;-61
2022/10/23 05:38:31;;;;;;;14.57;8.70;;;11.60;90.20;;;;;;9180556;19;20085;-62
2022/10/23 05:41:38;;;;;;;17.63;8.18;;;11.60;90.30;;;;;;9179851;19;20035;-62
2022/10/23 05:44:42;;;;;;;14.35;8.10;;;11.60;90.30;;;;;;9177520;19;20021;-62
2022/10/23 05:48:05;;;;;;;13.60;8.50;;;11.60;90.30;;;;;;9178771;19;20545;-64
2022/10/23 05:51:44;;;;;;;18.45;8.85;;;11.60;90.30;;;;;;9178881;19;20011;-60
2022/10/23 05:55:03;;;;;;;16.83;8.48;;;11.60;90.20;;;;;;9182363;19;20115;-64
2022/10/23 05:58:35;;;;;;;14.52;8.27;;;11.70;90.30;;;;;;9179318;19;20650;-62
2022/10/23 06:02:02;;;;;;;17.90;8.38;;;11.60;90.30;;;;;;9180265;19;20235;-63
2022/10/23 06:05:24;;;;;;;14.43;8.98;;;11.70;90.30;;;;;;9174029;19;20015;-61
2022/10/23 06:08:46;;;;;;;15.35;8.80;;;11.70;90.30;;;;;;9180801;19;20029;-62
2022/10/23 06:11:52;;;;;;;16.95;8.40;;;11.70;90.30;;;;;;9176413;19;20492;-61
2022/10/23 06:14:58;;;;;;;15.68;8.82;;;11.70;90.30;;;;;;9180030;19;20018;-62
2022/10/23 06:18:15;;;;;;;13.50;7.65;;;11.70;90.30;;;;;;9179114;19;20047;-61
2022/10/23 06:21:37;;;;;;;15.98;9.13;;;11.70;90.30;;;;;;9178906;19;20026;-61
2022/10/23 06:24:41;;;;;;;16.85;8.35;;;11.80;90.40;;;;;;9179215;19;20313;-62
2022/10/23 06:27:52;;;;;;;14.57;8.10;;;11.80;90.40;;;;;;9178702;19;20007;-64
2022/10/23 06:30:56;;;;;;;16.77;8.43;;;11.80;90.40;;;;;;9176502;19;20025;-62
2022/10/23 06:34:00;;;;;;;14.48;8.95;;;11.80;90.40;;;;;;9176874;19;20033;-62
2022/10/23 06:37:06;;;;;;;16.63;9.02;;;11.80;90.40;;;;;;9178678;19;20053;-62
2022/10/23 06:40:17;;;;;;;20.25;8.85;;;11.80;90.40;;;;;;9177509;19;20509;-62
2022/10/23 06:43:35;;;;;;;13.52;8.75;;;11.80;90.40;;;;;;9173289;19;20115;-61
2022/10/23 06:46:56;;;;;;;15.52;8.40;;;11.80;90.40;;;;;;9180069;19;20014;-62
2022/10/23 06:50:18;;;;;;;14.77;8.30;;;11.80;90.40;;;;;;9178363;19;20735;-62
2022/10/23 06:53:24;;;;;;;17.73;8.15;;;11.80;90.40;;;;;;9179954;19;20352;-62
2022/10/23 06:56:35;;;;;;;19.75;9.18;;;11.90;90.70;;;;;;9176863;19;20018;-62
2022/10/23 06:59:44;;;;;;;21.17;8.90;;;11.80;90.40;;;;;;9177572;19;20022;-61
2022/10/23 07:02:47;;;;;;;21.65;9.30;;;11.90;90.40;;;;;;9176748;19;20344;-60
2022/10/23 07:05:51;;;;;;;22.23;9.60;;;11.90;90.40;;;;;;9177395;19;20015;-62
2022/10/23 07:08:55;;;;;;;15.52;8.15;;;11.90;90.40;;;;;;9174263;19;20026;-62
2022/10/23 07:12:21;;;;;;;17.85;9.05;;;11.90;90.40;;;;;;9172028;19;20019;-64
2022/10/23 07:15:33;;;;;;;15.35;8.45;;;11.90;90.40;;;;;;9174907;19;20616;-64
2022/10/23 07:18:37;;;;;;;19.02;8.45;;;11.90;90.40;;;;;;9174198;19;20026;-63
2022/10/23 07:22:19;;;;;;;20.77;8.88;;;11.90;90.40;;;;;;9176614;19;20501;-61
2022/10/23 07:25:34;;;;;;;16.05;8.75;;;12.00;90.50;;;;;;9176116;19;20014;-63
2022/10/23 07:28:40;;;;;;;;;;;12.00;90.50;;;;;;9177122;19;20022;-62
2022/10/23 07:31:45;;;;;;;14.70;8.50;;;12.00;90.50;;;;;;9173653;19;19924;-62
2022/10/23 07:35:09;;;;;;;19.15;8.75;;;12.00;90.40;;;;;;9176682;19;20475;-62
2022/10/23 07:38:16;;;;;;;19.77;8.80;;;12.00;90.50;;;;;;9171739;19;20537;-61
2022/10/23 07:41:24;;;;;;;14.85;8.32;;;12.00;90.50;;;;;;9165829;19;20337;-61
2022/10/23 07:44:27;;;;;;;20.98;7.93;;;12.00;90.50;;;;;;9161050;19;20388;-65
2022/10/23 07:47:34;;;;;;;22.63;8.05;;;12.10;90.60;;;;;;9167288;19;20018;-62
2022/10/23 07:50:39;;;;;;;16.77;7.75;;;12.10;90.60;;;;;;9165615;19;20101;-62
2022/10/23 07:53:44;;;;;;;16.02;7.60;;;12.10;90.60;;;;;;9163747;19;20429;-66
2022/10/23 07:57:00;;;;;;;17.02;8.77;;;12.10;90.60;;;;;;9166837;19;20018;-61
2022/10/23 08:00:19;;;;;;;25.33;8.48;;;12.20;90.60;;;;;;9167394;19;20015;-62
2022/10/23 08:03:34;;;;;;;15.52;8.70;;;12.20;90.60;;;;;;9165441;19;20550;-63
2022/10/23 08:06:39;;;;;;;14.40;8.13;;;12.20;90.60;;;;;;9171358;19;20434;-63
2022/10/23 08:09:43;;;;;;;13.77;7.75;;;12.30;90.70;;;;;;9176265;19;20025;-63
2022/10/23 08:12:47;;;;;;;20.88;8.73;;;12.30;90.70;;;;;;9168716;19;20011;-63
2022/10/23 08:15:54;;;;;;;16.45;8.23;;;12.40;90.70;;;;;;9168595;19;20014;-63
2022/10/23 08:19:23;;;;;;;12.43;7.70;;;12.40;90.70;;;;;;9165903;19;20015;-62
2022/10/23 08:22:29;;;;;;;15.85;8.85;;;12.50;90.70;;;;;;9168616;19;20015;-64
2022/10/23 08:25:32;;;;;;;20.45;8.48;;;12.50;90.70;;;;;;9169511;19;20025;-61
2022/10/23 08:28:36;;;;;;;23.35;8.93;;;12.60;90.80;;;;;;9171117;19;20055;-63
2022/10/23 08:31:40;;;;;;;12.43;8.10;;;12.60;90.80;;;;;;9174744;19;20018;-63
2022/10/23 08:34:53;;;;;;;19.00;8.70;;;12.70;90.80;;;;;;9175874;19;20026;-63
2022/10/23 08:37:59;;;;;;;19.33;8.80;;;12.70;90.80;;;;;;9174585;19;20704;-62
2022/10/23 08:41:13;;;;;;;15.93;8.77;;;12.80;90.80;;;;;;9175068;19;20018;-63
2022/10/23 08:44:33;;;;;;;18.92;9.05;;;12.80;90.80;;;;;;9171880;19;20018;-63
2022/10/23 08:47:40;;;;;;;16.38;8.85;;;12.90;90.90;;;;;;9177971;19;20082;-63
2022/10/23 08:51:17;;;;;;;19.15;8.82;;;13.00;90.90;;;;;;9180763;19;20483;-62
2022/10/23 08:54:23;;;;;;;13.45;8.40;;;13.00;90.90;;;;;;9181198;19;20018;-62
2022/10/23 08:57:33;;;;;;;15.13;8.18;;;13.10;90.90;;;;;;9183319;19;20023;-62
2022/10/23 09:00:37;;;;;;;19.23;9.38;;;13.20;90.90;;;;;;9181040;19;20019;-62
2022/10/23 09:03:41;;;;;;;15.52;7.45;;;13.30;91.00;;;;;;9182149;19;20018;-62
2022/10/23 09:06:56;;;;;;;17.00;7.70;;;13.30;91.20;;;;;;9183173;19;20036;-62
2022/10/23 09:10:15;;;;;;;14.00;7.13;;;13.40;91.00;;;;;;9182197;19;20018;-61
2022/10/23 09:13:49;;;;;;;12.50;6.97;;;13.50;91.00;;;;;;9182379;19;20018;-61
2022/10/23 09:17:05;;;;;;;17.77;7.10;;;13.50;91.00;;;;;;9182956;19;20048;-62
2022/10/23 09:20:17;;;;;;;12.88;6.47;;;13.60;91.00;;;;;;9182101;19;20086;-63
2022/10/23 09:23:24;;;;;;;15.98;6.57;;;13.70;91.00;;;;;;9182458;19;20405;-63
2022/10/23 09:26:28;;;;;;;12.18;6.57;;;13.70;91.00;;;;;;9181151;19;20658;-61
2022/10/23 09:29:34;;;;;;;10.00;5.63;;;13.80;91.00;;;;;;9182089;19;20086;-64
2022/10/23 09:32:39;;;;;;;9.43;5.43;;;13.80;91.00;;;;;;9178214;19;20065;-63
2022/10/23 09:35:54;;;;;;;12.57;5.35;;;13.90;91.00;;;;;;9182242;19;20021;-64
2022/10/23 09:39:01;;;;;;;12.85;5.75;;;14.00;91.00;;;;;;9181915;19;20090;-64
2022/10/23 09:42:22;;;;;;;14.10;5.30;;;14.00;91.00;;;;;;9179403;19;20513;-65
2022/10/23 09:45:29;;;;;;;13.50;5.43;;;14.10;91.00;;;;;;9175839;19;20014;-63
2022/10/23 09:48:35;;;;;;;9.75;5.38;;;14.10;91.00;;;;;;9180109;19;20364;-63
2022/10/23 09:51:41;;;;;;;10.27;5.65;;;14.20;91.00;;;;;;9178940;19;20010;-62
2022/10/23 09:54:49;;;;;;;13.73;5.63;;;14.20;91.00;;;;;;9180238;19;20026;-63
2022/10/23 09:57:54;;;;;;;15.63;5.32;;;14.30;91.00;;;;;;9181822;19;20386;-62
2022/10/23 10:00:58;;;;;;;13.25;5.60;;;14.40;91.00;;;;;;9176944;19;20019;-63
2022/10/23 10:04:19;;;;;;;8.60;4.90;;;14.40;91.00;;;;;;9170159;19;20077;-64
2022/10/23 10:07:24;;;;;;;13.75;5.05;;;14.50;91.00;;;;;;9173773;19;20021;-63
2022/10/23 10:10:38;;;;;;;11.23;4.93;;;14.50;91.00;;;;;;9174418;19;20467;-64
2022/10/23 10:14:19;;;;;;;12.35;5.10;;;14.60;91.30;;;;;;9172318;19;20375;-63
2022/10/23 10:17:32;;;;;;;15.57;5.55;;;14.60;91.10;;;;;;9172127;19;20716;-63
2022/10/23 10:20:52;;;;;;;11.98;5.25;;;14.70;91.00;;;;;;9175449;19;20010;-67
2022/10/23 10:24:03;;;;;;;9.60;5.10;;;14.80;91.00;;;;;;9173402;19;20023;-63
2022/10/23 10:27:21;;;;;;;8.40;4.13;;;14.80;91.00;;;;;;9173156;19;20026;-62
2022/10/23 10:30:26;;;;;;;9.75;4.20;;;14.90;91.00;;;;;;9173430;19;20051;-63
2022/10/23 10:33:37;;;;;;;6.50;4.10;;;15.00;91.00;;;;;;9173157;19;20052;-62
2022/10/23 10:36:51;;;;;;;11.85;4.03;;;15.00;91.00;;;;;;9172601;19;20042;-61
2022/10/23 10:39:58;;;;;;;;;;;15.10;91.00;;;;;;9175147;19;20006;-64
2022/10/23 10:43:29;;;;;;;12.43;4.05;;;15.20;90.90;;;;;;9168890;19;19954;-63
2022/10/23 10:46:38;;;;;;;8.00;4.03;;;15.20;90.80;;;;;;9173083;19;20676;-61
2022/10/23 10:49:51;;;;;;;6.70;4.05;;;15.30;90.80;;;;;;9172443;19;20042;-62
2022/10/23 10:53:10;;;;;;;24.85;5.13;;;15.30;90.80;;;;;;9169920;19;20007;-62
2022/10/23 10:56:16;;;;;;;8.93;3.55;;;15.40;90.80;;;;;;9170993;19;20019;-62
2022/10/23 10:59:27;;;;;;;16.40;3.50;;;15.40;90.80;;;;;;9173612;19;20340;-65
2022/10/23 11:02:40;;;;;;;7.85;3.75;;;15.40;90.70;;;;;;9168317;19;20025;-63
2022/10/23 11:05:47;;;;;;;11.05;4.25;;;15.40;90.70;;;;;;9168362;19;20494;-65
2022/10/23 11:08:51;;;;;;;7.20;3.35;;;15.40;90.70;;;;;;9173584;19;20035;-65
2022/10/23 11:12:07;;;;;;;9.52;3.55;;;15.50;90.70;;;;;;9170898;19;20022;-64
2022/10/23 11:15:15;;;;;;;;;;;15.50;90.70;;;;;;9173070;19;20029;-64
2022/10/23 11:18:26;;;;;;;10.63;3.90;;;15.50;90.70;;;;;;9173335;19;19949;-63
2022/10/23 11:21:39;;;;;;;6.50;3.38;;;15.60;90.60;;;;;;9170437;19;20768;-62
2022/10/23 11:25:13;;;;;;;15.77;3.88;;;15.60;90.60;;;;;;9169852;19;20630;-63
2022/10/23 11:28:26;;;;;;;8.27;3.85;;;15.60;90.60;;;;;;9170289;19;20428;-64
2022/10/23 11:31:39;;;;;;;20.52;3.85;;;15.70;90.60;;;;;;9165860;19;20616;-63
2022/10/23 11:35:05;;;;;;;7.85;3.10;;;15.70;90.60;;;;;;9171330;19;20026;-62
2022/10/23 11:38:18;;;;;;;13.25;3.45;;;16.00;90.70;;;;;;9171447;19;20472;-64
2022/10/23 11:41:25;;;;;;;9.85;3.95;;;15.80;90.60;;;;;;9171517;19;20048;-62
2022/10/23 11:44:43;;;;;;;9.30;2.95;;;15.80;90.60;;;;;;9166732;19;20026;-66
2022/10/23 11:47:57;;;;;;;6.47;2.97;;;15.80;90.50;;;;;;9168900;19;20018;-63
2022/10/23 11:51:01;;;;;;;10.85;3.05;;;15.90;90.50;;;;;;9169528;19;20081;-63
2022/10/23 11:54:26;;;;;;;8.07;3.33;;;15.90;90.50;;;;;;9170747;19;20019;-64
2022/10/23 11:57:29;;;;;;;7.97;3.30;;;15.90;90.50;;;;;;9168921;19;20022;-64
2022/10/23 12:01:02;;;;;;;8.80;3.27;;;16.00;90.50;;;;;;9170860;19;20014;-65
2022/10/23 12:04:22;;;;;;;6.38;3.47;;;16.00;90.40;;;;;;9173032;19;20369;-64
2022/10/23 12:07:29;;;;;;;6.60;3.47;;;16.00;90.40;;;;;;9178456;19;20022;-65
2022/10/23 12:10:36;;;;;;;10.10;3.40;;;16.00;90.40;;;;;;9177510;19;20956;-62
2022/10/23 12:13:47;;;;;;;10.90;3.42;;;16.10;90.40;;;;;;9176320;19;20018;-63
2022/10/23 12:16:51;;;;;;;6.32;3.63;;;16.10;90.30;;;;;;9178307;19;20580;-62
2022/10/23 12:20:04;;;;;;;5.63;2.88;;;16.10;90.30;;;;;;9175750;19;20056;-62
2022/10/23 12:23:34;;;;;;;11.93;4.15;;;16.20;90.30;;;;;;9178427;19;20029;-62
2022/10/23 12:26:56;;;;;;;10.07;3.40;;;16.20;90.30;;;;;;9175943;19;20435;-62
2022/10/23 12:30:17;;;;;;;7.05;3.58;;;16.30;90.30;;;;;;9176500;19;20032;-62
2022/10/23 12:33:29;;;;;;;10.82;2.88;;;16.30;90.30;;;;;;9176416;19;20025;-66
2022/10/23 12:36:48;;;;;;;7.63;3.08;;;16.30;90.30;;;;;;9176746;19;20015;-65
2022/10/23 12:39:57;;;;;;;7.70;2.97;;;16.40;90.20;;;;;;9177577;19;20052;-61
2022/10/23 12:43:02;;;;;;;8.13;3.50;;;16.40;90.20;;;;;;9173652;19;20022;-64
2022/10/23 12:46:19;;;;;;;7.75;2.92;;;16.50;90.20;;;;;;9175961;19;20044;-63
2022/10/23 12:49:24;;;;;;;9.05;2.90;;;16.50;90.20;;;;;;9176412;19;20021;-64
2022/10/23 12:52:33;;;;;;;12.38;2.75;;;16.50;90.10;;;;;;9174966;19;20077;-64
2022/10/23 12:55:49;;;;;;;9.20;4.38;;;16.60;90.20;;;;;;9177852;19;20018;-63
2022/10/23 12:58:56;;;;;;;7.95;2.70;;;16.60;90.10;;;;;;9176827;19;20359;-64
2022/10/23 13:02:00;;;;;;;6.85;3.35;;;16.60;90.10;;;;;;9176020;19;20022;-63
2022/10/23 13:05:06;;;;;;;;;;;16.70;90.10;;;;;;9174328;19;20022;-62
2022/10/23 13:08:13;;;;;;;6.35;2.58;;;16.70;90.10;;;;;;9176917;19;20353;-64
2022/10/23 13:11:37;;;;;;;13.35;3.08;;;16.80;90.10;;;;;;9174401;19;20015;-64
2022/10/23 13:14:56;;;;;;;5.95;2.50;;;16.80;90.00;;;;;;9173733;19;20369;-64
2022/10/23 13:18:05;;;;;;;6.53;2.63;;;16.80;90.00;;;;;;9173522;19;20464;-64
2022/10/23 13:21:18;;;;;;;9.68;2.45;;;16.90;90.00;;;;;;9176434;19;20018;-64
2022/10/23 13:24:26;;;;;;;5.90;2.78;;;16.90;90.00;;;;;;9174682;19;20018;-62
2022/10/23 13:27:34;;;;;;;11.68;2.60;;;17.00;90.00;;;;;;9174514;19;20006;-63
2022/10/23 13:30:41;;;;;;;5.90;2.35;;;17.00;89.80;;;;;;9172471;19;20019;-63
2022/10/23 13:33:46;;;;;;;5.95;2.33;;;17.00;90.00;;;;;;9171775;19;20486;-65
2022/10/23 13:37:00;;;;;;;6.35;2.70;;;17.10;90.10;;;;;;9173513;19;20093;-63
2022/10/23 13:40:22;;;;;;;5.28;2.20;;;17.10;89.60;;;;;;9168828;19;20356;-65
2022/10/23 13:43:27;;;;;;;8.13;2.40;;;17.10;89.60;;;;;;9168495;19;20617;-63
2022/10/23 13:46:31;;;;;;;7.68;2.70;;;17.20;89.50;;;;;;9174043;19;20614;-63
2022/10/23 13:49:35;;;;;;;7.05;2.47;;;17.20;89.50;;;;;;9173368;19;20098;-65
2022/10/23 13:52:38;;;;;;;5.05;2.28;;;17.20;89.40;;;;;;9171210;19;20024;-62
2022/10/23 13:55:46;;;;;;;6.47;2.70;;;17.20;89.30;;;;;;9172643;19;20664;-65
2022/10/23 13:58:50;;;;;;;6.63;2.50;;;17.30;89.30;;;;;;9176014;19;20014;-64
2022/10/23 14:01:56;;;;;;;15.25;3.00;;;17.30;89.30;;;;;;9173315;19;20054;-62
2022/10/23 14:04:59;;;;;;;11.35;3.00;;;17.30;89.20;;;;;;9171880;19;20019;-63
2022/10/23 14:08:03;;;;;;;10.55;3.08;;;17.30;89.20;;;;;;9175212;19;20086;-67
2022/10/23 14:11:11;;;;;;;16.17;3.45;;;17.30;89.20;;;;;;9173973;19;20099;-62
2022/10/23 14:14:14;;;;;;;2.97;2.40;;;17.40;89.10;;;;;;9171591;19;20023;-63
2022/10/23 14:17:18;;;;;;;5.70;2.42;;;17.40;89.10;;;;;;9174573;19;20018;-64
2022/10/23 14:20:22;;;;;;;9.20;2.63;;;17.40;89.10;;;;;;9174501;19;20019;-63
2022/10/23 14:23:30;;;;;;;6.53;3.05;;;17.40;89.10;;;;;;9172291;19;20043;-64
2022/10/23 14:26:36;;;;;;;7.07;2.35;;;17.40;89.00;;;;;;9170558;19;20415;-66
2022/10/23 14:29:41;;;;;;;16.23;2.60;;;17.50;89.00;;;;;;9173976;19;20014;-63
2022/10/23 14:32:45;;;;;;;5.78;2.60;;;17.50;88.90;;;;;;9170189;19;20026;-64
2022/10/23 14:35:51;;;;;;;14.35;2.70;;;17.50;88.90;;;;;;9174036;19;20014;-63
2022/10/23 14:38:58;;;;;;;7.90;3.15;;;17.50;88.90;;;;;;9172903;19;20464;-68
2022/10/23 14:42:04;;;;;;;5.25;2.55;;;17.50;88.90;;;;;;9178150;19;20031;-64
2022/10/23 14:45:09;;;;;;;7.60;3.30;;;17.50;88.80;;;;;;9174681;19;20117;-62
2022/10/23 14:48:13;;;;;;;10.90;3.47;;;17.50;88.80;;;;;;9180733;19;20018;-63
2022/10/23 14:51:20;;;;;;;6.88;2.22;;;17.50;88.70;;;;;;9178796;19;20018;-63
2022/10/23 14:54:24;;;;;;;5.88;2.00;;;17.60;88.70;;;;;;9180035;19;20015;-63
2022/10/23 14:57:30;;;;;;;10.02;2.47;;;17.50;88.70;;;;;;9178676;19;20014;-63
2022/10/23 15:00:34;;;;;;;5.90;2.85;;;17.50;88.60;;;;;;9179297;19;20032;-63
2022/10/23 15:03:38;;;;;;;10.70;3.08;;;17.60;88.70;;;;;;9177004;19;20017;-64
2022/10/23 15:06:41;;;;;;;;;;;17.60;88.70;;;;;;9175740;19;20617;-61
2022/10/23 15:09:45;;;;;;;9.93;2.60;;;17.60;88.70;;;;;;9165202;19;19930;-65
2022/10/23 15:12:51;;;;;;;5.68;2.45;;;17.60;88.60;;;;;;9162936;19;20111;-65
2022/10/23 15:16:03;;;;;;;4.53;2.25;;;17.60;88.60;;;;;;9163394;19;20010;-65
2022/10/23 15:19:07;;;;;;;6.60;2.60;;;17.60;88.50;;;;;;9164831;19;20097;-64
2022/10/23 15:22:13;;;;;;;6.30;1.92;;;17.60;88.50;;;;;;9165127;19;20022;-66
2022/10/23 15:25:17;;;;;;;4.25;1.65;;;17.60;88.50;;;;;;9167898;19;20018;-64
2022/10/23 15:28:23;;;;;;;;;;;17.60;88.50;;;;;;9171891;19;20368;-64
2022/10/23 15:31:47;;;;;;;6.00;2.78;;;17.60;88.50;;;;;;9169061;19;20301;-65
2022/10/23 15:34:52;;;;;;;17.25;3.05;;;17.60;88.50;;;;;;9166472;19;20090;-65
2022/10/23 15:37:56;;;;;;;7.78;3.15;;;17.60;88.50;;;;;;9165831;19;20018;-66
2022/10/23 15:41:14;;;;;;;7.78;3.10;;;17.60;88.50;;;;;;9166294;19;20093;-65
2022/10/23 15:44:21;;;;;;;6.75;2.97;;;17.60;88.50;;;;;;9164042;19;20026;-66
2022/10/23 15:47:25;;;;;;;15.25;3.35;;;17.50;88.40;;;;;;9164605;19;20026;-65
2022/10/23 15:50:28;;;;;;;8.90;3.78;;;17.50;88.40;;;;;;9167861;19;20018;-64
2022/10/23 15:53:33;;;;;;;15.88;5.03;;;17.50;88.30;;;;;;9163126;19;20027;-63
2022/10/23 15:56:37;;;;;;;10.80;4.28;;;17.50;88.30;;;;;;9163757;19;20509;-64
2022/10/23 15:59:43;;;;;;;9.50;3.13;;;17.60;88.30;;;;;;9162550;19;20023;-63
2022/10/23 16:02:46;;;;;;;7.97;2.97;;;17.50;88.30;;;;;;9169645;19;20082;-62
2022/10/23 16:05:50;;;;;;;16.80;2.97;;;17.50;88.30;;;;;;9168444;19;20018;-64
2022/10/23 16:08:54;;;;;;;5.78;2.53;;;17.50;88.30;;;;;;9168787;19;20019;-64
2022/10/23 16:11:58;;;;;;;5.82;2.35;;;17.50;88.30;;;;;;9167619;19;20492;-64
2022/10/23 16:15:03;;;;;;;5.97;3.00;;;17.40;88.20;;;;;;9170390;19;20086;-63
2022/10/23 16:18:07;;;;;;;6.95;2.40;;;17.50;88.20;;;;;;9169636;19;20019;-66
2022/10/23 16:21:18;;;;;;;6.70;2.40;;;17.40;88.10;;;;;;9169824;19;20102;-64
2022/10/23 16:24:22;;;;;;;7.38;2.72;;;17.40;88.10;;;;;;9169356;19;20043;-66